createdAt,value
2022-08-05T00:04:46.587Z,3.03
2022-08-05T00:09:50.428Z,2.60
2022-08-05T00:14:43.771Z,2.88
2022-08-05T00:19:45.838Z,2.45
2022-08-05T00:24:54.830Z,2.85
2022-08-05T00:29:48.597Z,2.65
2022-08-05T00:35:03.918Z,2.92
2022-08-05T00:39:59.296Z,3.03
2022-08-05T00:44:52.728Z,3.08
2022-08-05T00:49:51.695Z,2.60
2022-08-05T00:54:45.219Z,2.35
2022-08-05T00:59:44.399Z,2.78
2022-08-05T01:04:42.018Z,2.53
2022-08-05T01:09:35.651Z,2.95
2022-08-05T01:14:38.567Z,2.40
2022-08-05T01:20:01.118Z,2.92
2022-08-05T01:25:53.260Z,2.90
2022-08-05T01:30:56.169Z,2.67
2022-08-05T01:35:53.433Z,2.60
2022-08-05T01:40:48.675Z,2.60
2022-08-05T01:45:43.758Z,2.78
2022-08-05T01:50:53.522Z,2.70
2022-08-05T01:55:48.711Z,2.50
2022-08-05T02:00:46.587Z,2.75
2022-08-05T02:05:42.682Z,2.60
2022-08-05T02:10:46.203Z,2.60
2022-08-05T02:15:50.985Z,2.65
2022-08-05T02:20:51.139Z,2.60
2022-08-05T02:25:50.120Z,2.83
2022-08-05T02:30:56.728Z,2.20
2022-08-05T02:35:56.248Z,2.25
2022-08-05T02:40:56.859Z,2.70
2022-08-05T02:45:53.972Z,2.60
2022-08-05T02:50:50.488Z,2.38
2022-08-05T02:55:54.834Z,2.30
2022-08-05T03:00:57.117Z,2.10
2022-08-05T03:06:56.334Z,2.20
2022-08-05T03:11:57.887Z,2.20
2022-08-05T03:16:32.241Z,2.00
2022-08-05T03:21:28.686Z,1.95
2022-08-05T03:26:30.841Z,2.17
2022-08-05T03:31:56.721Z,1.85
2022-08-05T03:36:42.024Z,2.08
2022-08-05T03:41:45.432Z,2.05
2022-08-05T03:46:45.853Z,2.10
2022-08-05T03:52:48.835Z,2.20
2022-08-05T03:57:16.638Z,2.15
2022-08-05T04:02:14.998Z,2.30
2022-08-05T04:07:13.097Z,2.30
2022-08-05T04:12:24.578Z,1.98
2022-08-05T04:17:19.089Z,2.15
2022-08-05T04:22:15.273Z,1.90
2022-08-05T04:27:15.526Z,2.10
2022-08-05T04:32:10.169Z,2.05
2022-08-05T04:37:04.388Z,1.80
2022-08-05T04:42:00.221Z,2.05
2022-08-05T04:46:55.158Z,2.00
2022-08-05T04:51:48.472Z,2.00
2022-08-05T04:56:58.731Z,2.40
2022-08-05T05:02:06.850Z,2.05
2022-08-05T05:07:09.439Z,2.10
2022-08-05T05:12:03.188Z,2.20
2022-08-05T05:16:57.941Z,2.28
2022-08-05T05:21:51.249Z,2.22
2022-08-05T05:26:51.848Z,2.30
2022-08-05T05:31:46.433Z,2.15
2022-08-05T05:36:41.369Z,2.13
2022-08-05T05:41:40.631Z,2.15
2022-08-05T05:46:35.123Z,2.53
2022-08-05T05:51:49.733Z,2.53
2022-08-05T05:56:45.576Z,2.40
2022-08-05T06:01:57.512Z,2.50
2022-08-05T06:06:51.364Z,2.38
2022-08-05T06:12:01.303Z,2.60
2022-08-05T06:16:55.633Z,2.25
2022-08-05T06:21:50.391Z,2.10
2022-08-05T06:26:52.378Z,1.92
2022-08-05T06:31:46.650Z,2.10
2022-08-05T06:36:57.065Z,2.40
2022-08-05T06:41:53.099Z,2.13
2022-08-05T06:46:46.601Z,2.00
2022-08-05T06:51:44.485Z,2.00
2022-08-05T06:56:38.726Z,2.10
2022-08-05T07:01:33.970Z,2.20
2022-08-05T07:06:27.634Z,2.10
2022-08-05T07:11:25.276Z,2.28
2022-08-05T07:18:02.277Z,2.20
2022-08-05T07:22:00.421Z,2.30
2022-08-05T07:26:54.802Z,2.30
2022-08-05T07:31:55.040Z,2.17
2022-08-05T07:36:51.341Z,2.08
2022-08-05T07:42:13.980Z,1.80
2022-08-05T07:46:57.983Z,2.20
2022-08-05T07:51:54.654Z,2.22
2022-08-05T07:57:01.695Z,2.10
2022-08-05T08:02:02.373Z,2.22
2022-08-05T08:07:00.862Z,2.15
2022-08-05T08:12:01.806Z,2.13
2022-08-05T08:16:57.200Z,2.40
2022-08-05T08:21:50.588Z,2.08
2022-08-05T08:26:46.209Z,2.10
2022-08-05T08:31:39.551Z,2.03
2022-08-05T08:36:49.140Z,2.30
2022-08-05T08:41:52.064Z,2.22
2022-08-05T08:46:52.691Z,2.33
2022-08-05T08:52:06.181Z,2.10
2022-08-05T08:57:11.266Z,2.33
2022-08-05T09:02:08.549Z,2.22
2022-08-05T09:07:02.119Z,2.25
2022-08-05T09:12:20.023Z,2.30
2022-08-05T09:17:40.147Z,2.80
2022-08-05T09:22:31.835Z,1.92
2022-08-05T09:28:04.212Z,2.42
2022-08-05T09:32:51.998Z,2.22
2022-08-05T09:38:12.009Z,2.25
2022-08-05T09:43:08.585Z,2.30
2022-08-05T09:48:04.256Z,2.03
2022-08-05T09:52:59.812Z,2.75
2022-08-05T09:57:58.599Z,2.42
2022-08-05T10:02:58.332Z,2.40
2022-08-05T10:08:36.481Z,2.30
2022-08-05T10:13:11.987Z,2.67
2022-08-05T10:18:16.932Z,2.30
2022-08-05T10:23:34.194Z,2.20
2022-08-05T10:28:29.608Z,2.40
2022-08-05T10:33:29.494Z,2.20
2022-08-05T10:38:33.056Z,2.47
2022-08-05T10:43:42.297Z,2.50
2022-08-05T10:48:56.413Z,2.55
2022-08-05T10:54:00.980Z,2.28
2022-08-05T10:59:12.842Z,2.30
2022-08-05T11:04:26.295Z,2.40
2022-08-05T11:09:32.418Z,2.22
2022-08-05T11:15:01.201Z,2.42
2022-08-05T11:20:10.500Z,2.50
2022-08-05T11:26:04.655Z,2.45
2022-08-05T11:31:54.138Z,2.10
2022-08-05T11:36:53.943Z,2.58
2022-08-05T11:42:02.287Z,2.65
2022-08-05T11:47:13.802Z,2.40
2022-08-05T11:52:12.266Z,2.38
2022-08-05T11:57:24.462Z,2.38
2022-08-05T12:02:30.298Z,2.47
2022-08-05T12:28:01.087Z,2.45
2022-08-05T12:34:35.707Z,2.50
2022-08-05T12:52:29.578Z,2.50
2022-08-05T12:58:39.079Z,2.17
2022-08-05T13:02:57.667Z,2.70
2022-08-05T13:08:01.621Z,2.55
2022-08-05T13:12:58.778Z,2.45
2022-08-05T13:17:59.287Z,2.80
2022-08-05T13:22:59.433Z,2.40
2022-08-05T13:27:57.610Z,2.83
2022-08-05T13:32:51.713Z,2.38
2022-08-05T13:37:46.258Z,2.28
2022-08-05T13:42:49.756Z,2.10
2022-08-05T13:48:09.755Z,1.98
2022-08-05T13:53:04.245Z,1.80
2022-08-05T13:58:03.080Z,1.70
2022-08-05T14:02:58.415Z,1.90
2022-08-05T14:08:03.293Z,2.10
2022-08-05T14:13:01.137Z,2.03
2022-08-05T14:17:59.505Z,1.77
2022-08-05T14:22:53.689Z,2.10
2022-08-05T14:27:48.686Z,1.80
2022-08-05T14:32:42.731Z,1.83
2022-08-05T14:37:45.531Z,2.00
2022-08-05T14:42:42.389Z,2.00
2022-08-05T14:48:02.948Z,2.00
2022-08-05T14:52:53.449Z,2.08
2022-08-05T14:57:56.045Z,2.92
2022-08-05T15:02:58.211Z,1.90
2022-08-05T15:09:03.541Z,1.80
2022-08-05T15:14:34.642Z,2.15
2022-08-05T15:19:50.573Z,1.80
2022-08-05T15:24:48.861Z,2.08
2022-08-05T15:29:49.592Z,2.40
2022-08-05T15:34:49.137Z,2.13
2022-08-05T15:41:03.838Z,2.20
2022-08-05T15:44:58.617Z,2.20
2022-08-05T15:50:38.385Z,2.08
2022-08-05T15:56:18.874Z,2.30
2022-08-05T16:01:39.578Z,2.08
2022-08-05T16:06:35.732Z,2.30
2022-08-05T16:12:20.532Z,2.10
2022-08-05T16:17:39.637Z,2.20
2022-08-05T16:24:12.891Z,2.22
2022-08-05T16:29:50.912Z,2.30
2022-08-05T16:34:50.965Z,2.40
2022-08-05T16:40:34.120Z,2.40
2022-08-05T16:46:04.578Z,2.35
2022-08-05T16:51:10.125Z,2.25
2022-08-05T16:56:14.281Z,2.30
2022-08-05T17:06:35.335Z,2.40
2022-08-05T17:11:35.918Z,2.28
2022-08-05T17:16:43.764Z,2.30
2022-08-05T17:21:51.609Z,2.83
2022-08-05T17:27:02.647Z,2.13
2022-08-05T17:38:57.184Z,1.70
2022-08-05T17:51:50.836Z,1.80
2022-08-05T17:57:59.777Z,1.98
2022-08-05T18:10:00.014Z,2.63
2022-08-05T18:15:38.538Z,2.42
2022-08-05T18:21:19.944Z,3.30
2022-08-05T18:32:12.681Z,3.22
2022-08-05T18:37:12.292Z,4.68
2022-08-05T18:42:11.482Z,3.90
2022-08-05T18:47:12.332Z,4.18
2022-08-05T18:52:33.092Z,4.22
2022-08-05T18:57:50.126Z,3.35
2022-08-05T19:02:48.892Z,3.65
2022-08-05T19:07:50.259Z,2.95
2022-08-05T19:12:46.148Z,3.65
2022-08-05T19:18:08.355Z,3.38
2022-08-05T19:22:57.160Z,3.83
2022-08-05T19:27:52.259Z,3.33
2022-08-05T19:33:34.076Z,3.00
2022-08-05T19:50:38.255Z,3.28
2022-08-05T19:56:14.804Z,3.10
2022-08-05T20:01:28.650Z,3.17
2022-08-05T20:07:49.376Z,3.25
2022-08-05T20:12:17.508Z,3.03
2022-08-05T20:17:23.216Z,3.13
2022-08-05T20:22:21.759Z,3.30
2022-08-05T20:27:41.557Z,2.78
2022-08-05T20:32:45.237Z,2.58
2022-08-05T20:38:06.332Z,2.83
2022-08-05T20:42:55.480Z,2.95
2022-08-05T20:48:00.625Z,2.90
2022-08-05T20:52:54.187Z,2.65
2022-08-05T20:57:47.669Z,2.70
2022-08-05T21:02:51.841Z,2.70
2022-08-05T21:07:52.035Z,3.00
2022-08-05T21:12:57.774Z,3.13
2022-08-05T21:17:58.650Z,3.25
2022-08-05T21:22:54.478Z,3.17
2022-08-05T21:27:52.583Z,2.78
2022-08-05T21:32:46.495Z,3.22
2022-08-05T21:37:41.359Z,3.08
2022-08-05T21:42:44.871Z,3.13
2022-08-05T21:47:56.672Z,3.10
2022-08-05T21:52:50.987Z,3.00
2022-08-05T21:57:45.780Z,2.70
2022-08-05T22:02:41.726Z,2.80
2022-08-05T22:07:40.144Z,2.58
2022-08-05T22:12:51.807Z,2.45
2022-08-05T22:17:48.678Z,2.33
2022-08-05T22:23:17.081Z,2.83
2022-08-05T22:28:15.956Z,3.08
2022-08-05T22:33:15.650Z,2.60
2022-08-05T22:38:09.882Z,2.55
2022-08-05T22:43:03.538Z,2.97
2022-08-05T22:47:59.736Z,2.90
2022-08-05T22:52:54.054Z,2.50
2022-08-05T22:57:47.518Z,3.08
2022-08-05T23:02:46.952Z,3.30
2022-08-05T23:07:48.366Z,3.17
2022-08-05T23:12:44.072Z,3.30
2022-08-05T23:18:02.434Z,3.50
2022-08-05T23:22:55.906Z,3.13
2022-08-05T23:28:00.157Z,3.15
2022-08-05T23:32:54.381Z,3.10
2022-08-05T23:37:47.807Z,3.60
2022-08-05T23:42:47.452Z,2.90
2022-08-05T23:47:48.333Z,3.03
2022-08-05T23:52:50.044Z,3.13
2022-08-05T23:57:48.847Z,3.20
